createdAt,value
2018-05-04T00:01:09.362Z,11.97
2018-05-04T00:03:38.477Z,10.47
2018-05-04T00:06:07.486Z,12.17
2018-05-04T00:08:35.729Z,10.87
2018-05-04T00:11:03.969Z,14.10
2018-05-04T00:13:32.224Z,10.80
2018-05-04T00:16:00.453Z,11.60
2018-05-04T00:18:28.711Z,10.40
2018-05-04T00:20:56.956Z,11.03
2018-05-04T00:23:25.229Z,9.83
2018-05-04T00:25:53.516Z,10.60
2018-05-04T00:28:21.734Z,10.93
2018-05-04T00:30:50.752Z,9.93
2018-05-04T00:33:19.745Z,12.57
2018-05-04T00:35:47.987Z,8.80
2018-05-04T00:38:16.225Z,13.30
2018-05-04T00:40:44.469Z,12.33
2018-05-04T00:43:12.716Z,9.13
2018-05-04T00:45:40.950Z,11.03
2018-05-04T00:48:09.210Z,9.00
2018-05-04T00:50:37.465Z,9.30
2018-05-04T00:53:06.462Z,11.13
2018-05-04T00:55:35.478Z,10.07
2018-05-04T00:58:03.709Z,10.00
2018-05-04T01:00:32.743Z,9.07
2018-05-04T01:03:00.981Z,10.13
2018-05-04T01:05:29.989Z,10.53
2018-05-04T01:07:58.986Z,8.60
2018-05-04T01:10:27.234Z,11.60
2018-05-04T01:12:55.466Z,8.53
2018-05-04T01:15:23.817Z,9.47
2018-05-04T01:17:52.822Z,11.70
2018-05-04T01:20:21.051Z,9.73
2018-05-04T01:22:49.299Z,11.97
2018-05-04T01:25:17.537Z,10.90
2018-05-04T01:27:45.782Z,10.50
2018-05-04T01:30:14.390Z,10.33
2018-05-04T01:32:43.395Z,10.07
2018-05-04T01:35:11.631Z,10.60
2018-05-04T01:37:40.134Z,12.40
2018-05-04T01:40:09.146Z,13.83
2018-05-04T01:42:37.390Z,9.17
2018-05-04T01:45:05.641Z,10.07
2018-05-04T01:47:33.878Z,10.30
2018-05-04T01:50:02.127Z,10.60
2018-05-04T01:52:31.141Z,11.07
2018-05-04T01:54:59.379Z,10.27
2018-05-04T01:57:27.686Z,10.97
2018-05-04T01:59:55.929Z,10.90
2018-05-04T02:02:24.177Z,9.87
2018-05-04T02:04:52.407Z,9.00
2018-05-04T02:07:21.425Z,11.70
2018-05-04T02:09:49.653Z,9.13
2018-05-04T02:12:17.906Z,9.60
2018-05-04T02:14:46.137Z,11.23
2018-05-04T02:17:14.381Z,10.43
2018-05-04T02:19:43.397Z,11.97
2018-05-04T02:22:11.631Z,9.97
2018-05-04T02:24:39.857Z,9.50
2018-05-04T02:27:08.101Z,11.07
2018-05-04T02:29:37.151Z,11.23
2018-05-04T02:32:05.397Z,9.07
2018-05-04T02:34:34.334Z,10.63
2018-05-04T02:37:02.581Z,9.47
2018-05-04T02:39:31.099Z,9.93
2018-05-04T02:41:59.322Z,9.90
2018-05-04T02:44:27.556Z,8.20
2018-05-04T02:46:55.804Z,8.67
2018-05-04T02:49:24.049Z,9.60
2018-05-04T02:51:52.294Z,10.43
2018-05-04T02:54:20.552Z,10.60
2018-05-04T02:56:48.771Z,9.27
2018-05-04T02:59:17.018Z,9.13
2018-05-04T03:01:45.253Z,10.47
2018-05-04T03:04:13.506Z,8.20
2018-05-04T03:06:41.741Z,10.03
2018-05-04T03:09:09.974Z,11.17
2018-05-04T03:11:38.319Z,11.03
2018-05-04T03:14:07.321Z,13.10
2018-05-04T03:16:35.569Z,9.27
2018-05-04T03:19:04.575Z,10.20
2018-05-04T03:21:33.585Z,9.27
2018-05-04T03:24:01.855Z,10.87
2018-05-04T03:26:30.106Z,10.03
2018-05-04T03:28:58.360Z,10.03
2018-05-04T03:31:26.589Z,10.27
2018-05-04T03:33:54.841Z,10.20
2018-05-04T03:36:23.837Z,9.47
2018-05-04T03:38:52.854Z,10.40
2018-05-04T03:41:21.085Z,10.87
2018-05-04T03:43:49.329Z,10.87
2018-05-04T03:46:17.565Z,11.20
2018-05-04T03:48:45.797Z,10.37
2018-05-04T03:51:14.049Z,10.07
2018-05-04T03:53:42.305Z,11.47
2018-05-04T03:56:10.549Z,10.10
2018-05-04T03:58:57.357Z,10.07
2018-05-04T04:01:44.592Z,12.83
2018-05-04T04:04:13.653Z,10.87
2018-05-04T04:06:41.886Z,10.67
2018-05-04T04:09:10.146Z,12.03
2018-05-04T04:11:38.402Z,11.70
2018-05-04T04:14:06.634Z,11.87
2018-05-04T04:16:34.877Z,11.37
2018-05-04T04:19:03.171Z,12.63
2018-05-04T04:21:31.434Z,12.43
2018-05-04T04:24:00.516Z,13.80
2018-05-04T04:26:28.762Z,12.77
2018-05-04T04:28:58.517Z,13.20
2018-05-04T04:31:26.774Z,11.17
2018-05-04T04:33:55.795Z,11.90
2018-05-04T04:36:24.030Z,11.77
2018-05-04T04:38:53.067Z,11.13
2018-05-04T04:41:21.288Z,11.20
2018-05-04T04:43:49.525Z,13.03
2018-05-04T04:46:17.793Z,12.03
2018-05-04T04:48:46.025Z,14.23
2018-05-04T04:51:15.034Z,13.20
2018-05-04T04:53:44.159Z,15.23
2018-05-04T04:56:12.431Z,13.17
2018-05-04T04:58:40.666Z,14.80
2018-05-04T05:01:09.674Z,14.90
2018-05-04T05:03:37.936Z,12.00
2018-05-04T05:06:06.193Z,12.97
2018-05-04T05:08:34.433Z,12.30
2018-05-04T05:11:02.982Z,15.90
2018-05-04T05:13:32.056Z,15.13
2018-05-04T05:16:00.228Z,11.53
2018-05-04T05:18:28.775Z,13.13
2018-05-04T05:20:57.011Z,13.87
2018-05-04T05:23:26.020Z,13.33
2018-05-04T05:25:54.271Z,14.40
2018-05-04T05:28:23.270Z,10.70
2018-05-04T05:30:52.277Z,14.87
2018-05-04T05:33:20.525Z,16.50
2018-05-04T05:35:49.524Z,13.57
2018-05-04T05:38:18.546Z,15.07
2018-05-04T05:40:46.782Z,11.60
2018-05-04T05:43:15.816Z,13.93
2018-05-04T05:45:44.062Z,15.57
2018-05-04T05:48:13.174Z,13.77
2018-05-04T05:50:41.422Z,14.77
2018-05-04T05:53:09.666Z,13.93
2018-05-04T05:55:37.922Z,13.90
2018-05-04T05:58:06.186Z,13.77
2018-05-04T06:00:35.266Z,12.23
2018-05-04T06:03:03.526Z,15.10
2018-05-04T06:05:32.526Z,13.00
2018-05-04T06:08:01.548Z,14.80
2018-05-04T06:10:29.788Z,13.13
2018-05-04T06:12:58.789Z,11.43
2018-05-04T06:15:27.819Z,10.77
2018-05-04T06:17:56.065Z,11.37
2018-05-04T06:20:25.087Z,13.83
2018-05-04T06:22:53.360Z,12.97
2018-05-04T06:25:21.585Z,13.50
2018-05-04T06:27:49.916Z,12.33
2018-05-04T06:30:18.162Z,12.97
2018-05-04T06:32:46.489Z,15.43
2018-05-04T06:35:14.662Z,17.07
2018-05-04T06:37:43.189Z,17.67
2018-05-04T06:40:12.197Z,13.00
2018-05-04T06:42:40.433Z,12.07
2018-05-04T06:45:08.685Z,13.60
2018-05-04T06:47:36.934Z,14.37
2018-05-04T06:50:05.171Z,14.33
2018-05-04T06:52:34.281Z,15.60
2018-05-04T06:55:03.295Z,14.80
2018-05-04T06:57:31.542Z,12.60
2018-05-04T07:00:00.549Z,12.57
2018-05-04T07:02:29.234Z,12.23
2018-05-04T07:04:57.482Z,14.63
2018-05-04T07:07:25.725Z,16.17
2018-05-04T07:09:53.983Z,11.50
2018-05-04T07:12:22.233Z,11.97
2018-05-04T07:14:51.245Z,11.80
2018-05-04T07:17:19.508Z,11.80
2018-05-04T07:19:47.734Z,14.23
2018-05-04T07:22:15.994Z,12.20
2018-05-04T07:24:44.230Z,14.30
2018-05-04T07:27:12.477Z,20.37
2018-05-04T07:29:40.722Z,14.67
2018-05-04T07:32:08.971Z,14.13
2018-05-04T07:34:37.206Z,12.63
2018-05-04T07:37:05.458Z,13.67
2018-05-04T07:39:33.697Z,13.70
2018-05-04T07:42:01.966Z,13.47
2018-05-04T07:44:30.229Z,13.40
2018-05-04T07:46:59.234Z,11.63
2018-05-04T07:49:27.486Z,13.37
2018-05-04T07:51:56.505Z,14.80
2018-05-04T07:54:24.745Z,23.07
2018-05-04T07:56:53.769Z,15.13
2018-05-04T07:59:22.786Z,27.03
2018-05-04T08:01:51.022Z,19.23
2018-05-04T08:04:20.028Z,18.47
2018-05-04T08:06:48.333Z,15.77
2018-05-04T08:09:16.575Z,17.43
2018-05-04T08:11:45.578Z,14.00
2018-05-04T08:14:13.833Z,16.10
2018-05-04T08:16:42.855Z,15.07
2018-05-04T08:19:11.097Z,14.87
2018-05-04T08:21:40.151Z,24.03
2018-05-04T08:24:08.370Z,40.20
2018-05-04T08:26:37.373Z,15.40
2018-05-04T08:29:06.396Z,15.17
2018-05-04T08:31:34.651Z,13.73
2018-05-04T08:34:03.660Z,15.27
2018-05-04T08:36:31.914Z,15.77
2018-05-04T08:39:00.913Z,14.97
2018-05-04T08:41:29.170Z,14.87
2018-05-04T08:43:58.198Z,15.60
2018-05-04T08:46:26.434Z,15.77
2018-05-04T08:48:55.445Z,18.17
2018-05-04T08:51:24.471Z,17.80
2018-05-04T08:53:52.709Z,19.40
2018-05-04T08:56:21.709Z,17.73
2018-05-04T08:58:50.734Z,17.63
2018-05-04T09:01:19.004Z,15.97
2018-05-04T09:03:47.233Z,20.20
2018-05-04T09:06:15.476Z,17.97
2018-05-04T09:08:43.717Z,16.37
2018-05-04T09:11:11.954Z,18.13
2018-05-04T09:13:40.198Z,20.70
2018-05-04T09:16:08.433Z,17.97
2018-05-04T09:18:36.709Z,18.47
2018-05-04T09:21:05.714Z,16.73
2018-05-04T09:23:33.979Z,18.60
2018-05-04T09:26:02.991Z,18.10
2018-05-04T09:28:31.242Z,20.57
2018-05-04T09:31:00.268Z,20.53
2018-05-04T09:33:28.501Z,18.90
2018-05-04T09:35:57.510Z,20.80
2018-05-04T09:38:25.745Z,25.77
2018-05-04T09:40:54.129Z,25.07
2018-05-04T09:43:22.387Z,20.87
2018-05-04T09:45:50.602Z,19.97
2018-05-04T09:48:19.628Z,32.83
2018-05-04T09:50:47.862Z,21.10
2018-05-04T09:53:16.869Z,22.47
2018-05-04T09:55:45.886Z,21.33
2018-05-04T09:58:14.125Z,34.43
2018-05-04T10:00:42.375Z,25.57
2018-05-04T10:03:10.622Z,21.10
2018-05-04T10:05:38.868Z,22.53
2018-05-04T10:08:07.886Z,22.10
2018-05-04T10:10:36.138Z,20.70
2018-05-04T10:13:05.142Z,20.97
2018-05-04T10:15:33.390Z,27.07
2018-05-04T10:18:02.403Z,21.77
2018-05-04T10:20:30.673Z,21.13
2018-05-04T10:22:59.675Z,19.57
2018-05-04T10:25:28.282Z,22.23
2018-05-04T10:27:56.509Z,22.60
2018-05-04T10:30:24.746Z,28.40
2018-05-04T10:32:52.998Z,24.70
2018-05-04T10:35:21.234Z,22.60
2018-05-04T10:37:50.256Z,21.93
2018-05-04T10:40:18.571Z,22.63
2018-05-04T10:42:46.809Z,25.23
2018-05-04T10:45:15.148Z,21.90
2018-05-04T10:47:44.092Z,23.73
2018-05-04T10:50:12.338Z,23.00
2018-05-04T10:52:41.337Z,31.90
2018-05-04T10:55:09.592Z,39.03
2018-05-04T10:57:38.604Z,23.37
2018-05-04T11:00:07.609Z,24.93
2018-05-04T11:02:35.865Z,23.83
2018-05-04T11:05:04.887Z,21.13
2018-05-04T11:07:33.141Z,20.70
2018-05-04T11:10:02.153Z,22.07
2018-05-04T11:12:30.401Z,23.80
2018-05-04T11:14:59.406Z,21.83
2018-05-04T11:17:27.662Z,25.23
2018-05-04T11:19:55.917Z,23.37
2018-05-04T11:22:24.169Z,23.23
2018-05-04T11:24:52.410Z,22.07
2018-05-04T11:27:20.649Z,22.33
2018-05-04T11:29:48.910Z,22.27
2018-05-04T11:32:17.153Z,21.47
2018-05-04T11:34:45.396Z,21.77
2018-05-04T11:37:14.427Z,23.50
2018-05-04T11:39:42.657Z,20.53
2018-05-04T11:42:11.697Z,19.93
2018-05-04T11:44:39.937Z,23.83
2018-05-04T11:47:08.941Z,37.50
2018-05-04T11:49:37.265Z,24.17
2018-05-04T11:52:06.209Z,20.53
2018-05-04T11:54:34.458Z,21.40
2018-05-04T11:57:02.703Z,20.33
2018-05-04T11:59:30.949Z,19.43
2018-05-04T12:01:59.206Z,20.53
2018-05-04T12:04:28.206Z,18.67
2018-05-04T12:06:56.458Z,19.27
2018-05-04T12:09:25.471Z,21.47
2018-05-04T12:11:54.491Z,23.33
2018-05-04T12:14:22.726Z,21.73
2018-05-04T12:16:51.754Z,22.40
2018-05-04T12:19:20.022Z,21.83
2018-05-04T12:21:48.261Z,22.77
2018-05-04T12:24:16.499Z,21.57
2018-05-04T12:26:44.750Z,27.47
2018-05-04T12:29:12.990Z,22.83
2018-05-04T12:31:41.235Z,25.33
2018-05-04T12:34:09.489Z,27.40
2018-05-04T12:36:37.724Z,24.33
2018-05-04T12:39:06.742Z,24.50
2018-05-04T12:41:35.001Z,26.80
2018-05-04T12:44:04.032Z,24.80
2018-05-04T12:46:32.268Z,23.80
2018-05-04T12:49:01.274Z,26.60
2018-05-04T12:51:29.647Z,24.40
2018-05-04T12:53:58.659Z,21.87
2018-05-04T12:56:26.929Z,24.97
2018-05-04T12:58:55.187Z,25.77
2018-05-04T13:01:24.183Z,25.53
2018-05-04T13:03:53.205Z,22.77
2018-05-04T13:06:21.471Z,24.27
2018-05-04T13:08:49.714Z,24.93
2018-05-04T13:11:17.950Z,23.87
2018-05-04T13:13:46.203Z,25.03
2018-05-04T13:16:14.438Z,24.80
2018-05-04T13:18:42.685Z,23.17
2018-05-04T13:21:11.121Z,22.80
2018-05-04T13:23:39.362Z,26.63
2018-05-04T13:26:07.593Z,22.43
2018-05-04T13:28:35.861Z,25.07
2018-05-04T13:31:04.094Z,21.40
2018-05-04T13:33:33.127Z,20.33
2018-05-04T13:36:01.409Z,21.97
2018-05-04T13:38:29.629Z,19.97
2018-05-04T13:40:57.890Z,21.33
2018-05-04T13:43:26.122Z,21.73
2018-05-04T13:45:54.366Z,20.93
2018-05-04T13:48:23.378Z,21.47
2018-05-04T13:50:52.484Z,22.67
2018-05-04T13:53:20.637Z,22.13
2018-05-04T13:55:49.654Z,22.73
2018-05-04T13:58:18.017Z,22.00
2018-05-04T14:00:47.037Z,22.70
2018-05-04T14:03:15.285Z,21.60
2018-05-04T14:05:44.306Z,22.63
2018-05-04T14:08:12.548Z,23.27
2018-05-04T14:10:41.582Z,23.00
2018-05-04T14:13:09.826Z,21.93
2018-05-04T14:15:38.830Z,23.43
2018-05-04T14:18:07.097Z,20.67
2018-05-04T14:20:35.330Z,22.13
2018-05-04T14:23:03.850Z,21.90
2018-05-04T14:25:32.851Z,21.93
2018-05-04T14:28:01.100Z,19.13
2018-05-04T14:30:29.350Z,22.00
2018-05-04T14:32:57.599Z,22.30
2018-05-04T14:35:25.830Z,20.60
2018-05-04T14:37:54.870Z,21.90
2018-05-04T14:40:23.113Z,20.17
2018-05-04T14:42:52.156Z,20.90
2018-05-04T14:45:20.390Z,20.47
2018-05-04T14:47:48.639Z,20.50
2018-05-04T14:50:17.247Z,22.00
2018-05-04T14:52:46.249Z,22.13
2018-05-04T14:55:14.486Z,21.97
2018-05-04T14:57:43.731Z,23.97
2018-05-04T15:00:11.986Z,23.40
2018-05-04T15:02:40.994Z,23.17
2018-05-04T15:05:09.383Z,21.60
2018-05-04T15:07:37.610Z,24.27
2018-05-04T15:10:06.630Z,22.63
2018-05-04T15:12:34.873Z,22.43
2018-05-04T15:15:03.355Z,22.00
2018-05-04T15:17:31.593Z,22.63
2018-05-04T15:19:59.833Z,20.00
2018-05-04T15:22:28.848Z,21.77
2018-05-04T15:24:57.111Z,22.63
2018-05-04T15:27:26.104Z,23.73
2018-05-04T15:29:54.349Z,22.70
2018-05-04T15:32:22.606Z,20.50
2018-05-04T15:34:50.886Z,21.03
2018-05-04T15:37:19.113Z,22.93
2018-05-04T15:39:47.356Z,19.80
2018-05-04T15:42:16.373Z,19.33
2018-05-04T15:44:44.631Z,19.97
2018-05-04T15:47:13.637Z,19.13
2018-05-04T15:49:41.898Z,20.00
2018-05-04T15:52:10.924Z,19.83
2018-05-04T15:54:39.206Z,17.23
2018-05-04T15:57:07.410Z,20.87
2018-05-04T15:59:35.653Z,20.40
2018-05-04T16:02:03.889Z,18.37
2018-05-04T16:04:32.922Z,19.77
2018-05-04T16:07:01.175Z,18.60
2018-05-04T16:09:30.181Z,17.67
2018-05-04T16:11:58.429Z,18.63
2018-05-04T16:14:27.746Z,17.17
2018-05-04T16:16:55.994Z,19.77
2018-05-04T16:19:24.233Z,17.47
2018-05-04T16:21:52.491Z,17.67
2018-05-04T16:24:20.729Z,16.53
2018-05-04T16:26:49.754Z,16.40
2018-05-04T16:29:18.321Z,19.47
2018-05-04T16:31:47.325Z,16.50
2018-05-04T16:34:15.561Z,15.80
2018-05-04T16:36:43.818Z,16.43
2018-05-04T16:39:12.245Z,16.60
2018-05-04T16:41:41.297Z,16.10
2018-05-04T16:44:09.486Z,17.53
2018-05-04T16:46:43.169Z,15.70
2018-05-04T16:49:16.981Z,17.20
2018-05-04T16:51:45.513Z,14.67
2018-05-04T16:54:13.753Z,17.77
2018-05-04T16:56:41.983Z,8.53
2018-05-04T16:59:10.230Z,14.77
2018-05-04T17:01:39.249Z,14.47
2018-05-04T17:04:07.482Z,15.03
2018-05-04T17:06:36.505Z,17.87
2018-05-04T17:09:04.789Z,18.90
2018-05-04T17:11:33.771Z,20.23
2018-05-04T17:14:02.061Z,19.03
2018-05-04T17:16:30.297Z,17.73
2018-05-04T17:18:59.311Z,17.13
2018-05-04T17:21:27.569Z,16.97
2018-05-04T17:23:56.571Z,17.37
2018-05-04T17:26:25.579Z,17.17
2018-05-04T17:28:53.845Z,17.73
2018-05-04T17:31:22.117Z,18.03
2018-05-04T17:33:51.122Z,16.67
2018-05-04T17:36:19.374Z,19.77
2018-05-04T17:38:48.389Z,18.57
2018-05-04T17:41:16.625Z,19.17
2018-05-04T17:43:44.881Z,18.47
2018-05-04T17:46:14.242Z,21.37
2018-05-04T17:48:42.478Z,19.77
2018-05-04T17:51:10.723Z,19.40
2018-05-04T17:53:39.177Z,18.87
2018-05-04T17:56:07.417Z,20.93
2018-05-04T17:58:35.749Z,19.17
2018-05-04T18:01:04.034Z,18.53
2018-05-04T18:03:32.604Z,20.57
2018-05-04T18:06:00.854Z,21.20
2018-05-04T18:08:29.857Z,20.60
2018-05-04T18:10:58.117Z,23.67
2018-05-04T18:13:27.142Z,20.70
2018-05-04T18:15:55.593Z,21.37
2018-05-04T18:18:24.615Z,21.00
2018-05-04T18:20:52.847Z,20.60
2018-05-04T18:23:21.885Z,19.53
2018-05-04T18:25:50.125Z,21.10
2018-05-04T18:28:19.148Z,20.03
2018-05-04T18:30:47.394Z,18.73
2018-05-04T18:33:16.414Z,21.97
2018-05-04T18:35:44.665Z,24.27
2018-05-04T18:38:13.677Z,21.40
2018-05-04T18:40:41.930Z,20.90
2018-05-04T18:43:10.943Z,22.13
2018-05-04T18:45:39.260Z,20.50
2018-05-04T18:48:07.508Z,23.07
2018-05-04T18:50:35.754Z,21.73
2018-05-04T18:53:04.771Z,20.63
2018-05-04T18:55:33.026Z,20.70
2018-05-04T18:58:02.035Z,22.27
2018-05-04T19:00:30.285Z,21.27
2018-05-04T19:03:04.622Z,23.70
2018-05-04T19:05:33.831Z,23.30
2018-05-04T19:08:02.113Z,20.40
2018-05-04T19:10:30.297Z,23.77
2018-05-04T19:12:58.545Z,21.80
2018-05-04T19:15:26.793Z,21.40
2018-05-04T19:17:55.050Z,22.93
2018-05-04T19:20:23.299Z,23.80
2018-05-04T19:22:51.559Z,23.90
2018-05-04T19:25:19.795Z,28.30
2018-05-04T19:27:48.041Z,26.07
2018-05-04T19:30:16.288Z,23.63
2018-05-04T19:32:44.550Z,21.67
2018-05-04T19:35:12.794Z,22.47
2018-05-04T19:37:41.052Z,22.43
2018-05-04T19:40:09.301Z,21.20
2018-05-04T19:42:37.541Z,20.20
2018-05-04T19:45:06.557Z,22.10
2018-05-04T19:47:34.806Z,24.50
2018-05-04T19:50:03.825Z,22.90
2018-05-04T19:52:32.104Z,22.70
2018-05-04T19:55:00.316Z,23.30
2018-05-04T19:57:28.563Z,22.43
2018-05-04T19:59:56.829Z,21.87
2018-05-04T20:02:25.087Z,23.67
2018-05-04T20:04:54.113Z,22.63
2018-05-04T20:07:22.389Z,24.33
2018-05-04T20:09:50.618Z,22.83
2018-05-04T20:12:19.635Z,24.17
2018-05-04T20:14:48.132Z,25.47
2018-05-04T20:17:16.367Z,23.17
2018-05-04T20:19:45.373Z,24.43
2018-05-04T20:22:14.395Z,23.37
2018-05-04T20:24:42.638Z,25.37
2018-05-04T20:27:11.661Z,24.10
2018-05-04T20:29:39.897Z,24.67
2018-05-04T20:32:08.194Z,23.80
2018-05-04T20:34:36.466Z,25.67
2018-05-04T20:37:05.478Z,25.70
2018-05-04T20:39:33.783Z,23.63
2018-05-04T20:42:02.037Z,24.77
2018-05-04T20:44:30.302Z,24.20
2018-05-04T20:46:58.553Z,23.40
2018-05-04T20:49:27.568Z,23.73
2018-05-04T20:51:55.887Z,21.93
2018-05-04T20:54:24.822Z,22.90
2018-05-04T20:56:53.918Z,25.73
2018-05-04T20:59:23.045Z,22.83
2018-05-04T21:01:51.291Z,27.03
2018-05-04T21:04:20.381Z,22.97
2018-05-04T21:06:49.405Z,23.77
2018-05-04T21:09:17.637Z,27.23
2018-05-04T21:11:46.685Z,25.67
2018-05-04T21:14:14.924Z,25.63
2018-05-04T21:16:43.921Z,25.40
2018-05-04T21:19:12.180Z,25.27
2018-05-04T21:21:41.197Z,25.67
2018-05-04T21:24:09.440Z,25.77
2018-05-04T21:26:37.694Z,25.50
2018-05-04T21:29:05.963Z,27.40
2018-05-04T21:31:34.222Z,25.53
2018-05-04T21:34:02.469Z,26.10
2018-05-04T21:36:30.721Z,36.80
2018-05-04T21:41:35.074Z,29.73
2018-05-04T21:44:04.091Z,27.30
2018-05-04T21:46:32.329Z,25.43
2018-05-04T21:49:01.350Z,27.97
2018-05-04T21:51:29.596Z,27.90
2018-05-04T21:53:58.598Z,26.70
2018-05-04T21:56:27.627Z,27.33
2018-05-04T21:58:55.878Z,26.40
2018-05-04T22:01:24.136Z,26.53
2018-05-04T22:03:52.495Z,27.47
2018-05-04T22:06:20.771Z,27.57
2018-05-04T22:08:49.022Z,26.50
2018-05-04T22:11:17.289Z,27.90
2018-05-04T22:13:45.525Z,28.90
2018-05-04T22:16:14.534Z,29.93
2018-05-04T22:18:42.788Z,26.60
2018-05-04T22:21:11.794Z,29.03
2018-05-04T22:23:40.051Z,30.67
2018-05-04T22:26:09.066Z,32.00
2018-05-04T22:28:37.306Z,32.23
2018-05-04T22:31:05.553Z,47.77
2018-05-04T22:33:33.801Z,35.57
2018-05-04T22:36:02.046Z,32.73
2018-05-04T22:38:31.054Z,29.40
2018-05-04T22:41:00.071Z,29.73
2018-05-04T22:43:28.326Z,28.17
2018-05-04T22:45:56.586Z,24.93
2018-05-04T22:48:24.832Z,29.70
2018-05-04T22:50:53.080Z,28.10
2018-05-04T22:53:21.330Z,29.80
2018-05-04T22:55:50.333Z,30.27
2018-05-04T22:58:18.592Z,29.73
2018-05-04T23:00:47.597Z,27.60
2018-05-04T23:03:15.850Z,26.60
2018-05-04T23:05:44.857Z,24.97
2018-05-04T23:08:14.162Z,28.53
2018-05-04T23:10:42.404Z,29.43
2018-05-04T23:13:10.645Z,28.97
2018-05-04T23:15:38.899Z,102.47
2018-05-04T23:18:07.151Z,80.83
2018-05-04T23:20:36.158Z,31.53
2018-05-04T23:23:04.401Z,29.27
2018-05-04T23:25:32.650Z,28.53
2018-05-04T23:28:00.886Z,29.50
2018-05-04T23:30:29.905Z,27.80
2018-05-04T23:32:58.150Z,27.43
2018-05-04T23:35:27.153Z,25.97
2018-05-04T23:37:55.411Z,24.67
2018-05-04T23:40:24.418Z,24.53
2018-05-04T23:42:52.681Z,27.50
2018-05-04T23:45:21.689Z,24.73
2018-05-04T23:47:49.937Z,25.63
2018-05-04T23:50:19.100Z,26.33
2018-05-04T23:52:47.353Z,25.07
2018-05-04T23:55:15.592Z,26.03
2018-05-04T23:57:44.605Z,25.67
